createdAt,value
2023-01-29T00:01:39.841Z,16.76
2023-01-29T00:04:07.291Z,16.81
2023-01-29T00:06:35.610Z,16.77
2023-01-29T00:09:03.020Z,16.79
2023-01-29T00:11:31.461Z,16.81
2023-01-29T00:13:59.876Z,16.80
2023-01-29T00:16:27.349Z,16.83
2023-01-29T00:18:54.693Z,16.81
2023-01-29T00:21:25.290Z,16.80
2023-01-29T00:23:52.757Z,16.77
2023-01-29T00:26:20.129Z,16.77
2023-01-29T00:28:47.560Z,16.81
2023-01-29T00:31:15.070Z,16.79
2023-01-29T00:36:09.945Z,16.81
2023-01-29T00:38:37.493Z,16.79
2023-01-29T00:41:23.611Z,16.81
2023-01-29T00:44:09.465Z,16.79
2023-01-29T00:46:36.916Z,16.80
2023-01-29T00:49:04.329Z,16.81
2023-01-29T00:51:31.834Z,16.80
2023-01-29T00:53:59.224Z,16.81
2023-01-29T00:58:53.799Z,16.80
2023-01-29T01:01:39.802Z,16.79
2023-01-29T01:04:07.014Z,16.79
2023-01-29T01:06:34.426Z,16.78
2023-01-29T01:09:20.427Z,16.79
2023-01-29T01:11:47.762Z,16.81
2023-01-29T01:14:15.483Z,16.77
2023-01-29T01:19:10.152Z,16.84
2023-01-29T01:21:37.659Z,16.82
2023-01-29T01:24:06.144Z,16.82
2023-01-29T01:26:33.454Z,16.82
2023-01-29T01:29:00.804Z,16.80
2023-01-29T01:31:28.193Z,16.81
2023-01-29T01:33:55.773Z,16.80
2023-01-29T01:36:23.056Z,16.78
2023-01-29T01:41:41.055Z,16.73
2023-01-29T01:44:08.442Z,16.67
2023-01-29T01:46:36.036Z,16.65
2023-01-29T01:49:03.563Z,16.61
2023-01-29T01:51:30.962Z,16.60
2023-01-29T01:53:58.338Z,16.58
2023-01-29T01:56:25.780Z,16.50
2023-01-29T02:01:42.883Z,16.45
2023-01-29T02:04:29.141Z,16.42
2023-01-29T02:07:15.053Z,16.36
2023-01-29T02:12:09.765Z,16.31
2023-01-29T02:14:39.604Z,16.31
2023-01-29T02:17:06.964Z,16.27
2023-01-29T02:19:34.356Z,16.27
2023-01-29T02:22:01.904Z,16.26
2023-01-29T02:24:29.306Z,16.26
2023-01-29T02:26:56.935Z,16.23
2023-01-29T02:29:25.357Z,16.22
2023-01-29T02:31:52.787Z,16.20
2023-01-29T02:34:20.801Z,16.16
2023-01-29T02:36:48.149Z,16.18
2023-01-29T02:39:15.604Z,16.16
2023-01-29T02:44:10.316Z,16.14
2023-01-29T02:46:37.687Z,16.13
2023-01-29T02:49:05.093Z,16.11
2023-01-29T02:51:32.399Z,16.11
2023-01-29T02:54:02.790Z,16.07
2023-01-29T02:56:30.242Z,16.07
2023-01-29T02:58:57.603Z,16.06
2023-01-29T03:01:24.982Z,16.04
2023-01-29T03:03:52.374Z,16.01
2023-01-29T03:06:22.466Z,16.01
2023-01-29T03:08:50.227Z,15.99
2023-01-29T03:11:17.949Z,15.97
2023-01-29T03:13:45.386Z,15.97
2023-01-29T03:16:12.830Z,15.95
2023-01-29T03:24:17.187Z,15.91
2023-01-29T03:27:03.273Z,15.91
2023-01-29T03:29:49.291Z,15.87
2023-01-29T03:32:16.665Z,15.87
2023-01-29T03:37:11.272Z,15.82
2023-01-29T03:39:38.569Z,15.81
2023-01-29T03:42:05.933Z,15.82
2023-01-29T03:44:33.245Z,15.78
2023-01-29T03:47:00.628Z,15.76
2023-01-29T03:49:27.951Z,15.78
2023-01-29T03:51:55.638Z,15.76
2023-01-29T03:54:23.491Z,15.74
2023-01-29T03:56:50.890Z,15.73
2023-01-29T03:59:18.192Z,15.71
2023-01-29T04:04:14.871Z,15.70
2023-01-29T04:06:42.280Z,15.67
2023-01-29T04:09:09.606Z,15.67
2023-01-29T04:11:37.021Z,15.67
2023-01-29T04:14:04.340Z,15.65
2023-01-29T04:16:31.764Z,15.64
2023-01-29T04:18:59.139Z,15.62
2023-01-29T04:21:26.472Z,15.63
2023-01-29T04:23:54.483Z,15.62
2023-01-29T04:26:21.952Z,15.59
2023-01-29T04:28:51.049Z,15.59
2023-01-29T04:31:21.321Z,15.59
2023-01-29T04:33:48.883Z,15.58
2023-01-29T04:36:16.436Z,15.57
2023-01-29T04:41:11.454Z,15.55
2023-01-29T04:43:38.744Z,15.52
2023-01-29T04:46:06.026Z,15.53
2023-01-29T04:48:33.455Z,15.52
2023-01-29T04:51:00.837Z,15.49
2023-01-29T04:53:28.198Z,15.48
2023-01-29T04:55:55.563Z,15.47
2023-01-29T04:58:22.894Z,15.49
2023-01-29T05:03:17.863Z,15.44
2023-01-29T05:05:45.400Z,15.44
2023-01-29T05:08:13.357Z,15.43
2023-01-29T05:13:07.926Z,15.42
2023-01-29T05:15:35.279Z,15.37
2023-01-29T05:18:03.228Z,15.37
2023-01-29T05:20:30.643Z,15.37
2023-01-29T05:23:00.284Z,15.35
2023-01-29T05:25:27.598Z,15.35
2023-01-29T05:28:13.561Z,15.34
2023-01-29T05:30:40.947Z,15.33
2023-01-29T05:33:08.296Z,15.33
2023-01-29T05:35:35.646Z,15.32
2023-01-29T05:38:02.981Z,15.29
2023-01-29T05:40:31.757Z,15.28
2023-01-29T05:42:59.149Z,15.27
2023-01-29T05:45:26.542Z,15.26
2023-01-29T05:47:53.870Z,15.27
2023-01-29T05:50:21.219Z,15.25
2023-01-29T05:52:48.551Z,15.26
2023-01-29T05:55:15.904Z,15.25
2023-01-29T05:57:43.201Z,15.25
2023-01-29T06:00:10.639Z,15.22
2023-01-29T06:02:38.041Z,15.19
2023-01-29T06:05:05.257Z,15.20
2023-01-29T06:07:32.446Z,15.18
2023-01-29T06:09:59.631Z,15.18
2023-01-29T06:12:26.809Z,15.16
2023-01-29T06:14:53.989Z,15.14
2023-01-29T06:17:21.159Z,15.13
2023-01-29T06:19:48.372Z,15.13
2023-01-29T06:22:15.659Z,15.13
2023-01-29T06:24:42.842Z,15.11
2023-01-29T06:27:10.011Z,15.13
2023-01-29T06:29:37.265Z,15.11
2023-01-29T06:32:04.525Z,15.09
2023-01-29T06:34:31.854Z,15.06
2023-01-29T06:36:59.038Z,15.06
2023-01-29T06:39:26.204Z,15.04
2023-01-29T06:41:53.369Z,15.03
2023-01-29T06:44:20.613Z,15.00
2023-01-29T06:46:47.789Z,15.02
2023-01-29T06:49:14.962Z,15.00
2023-01-29T06:51:42.316Z,15.02
2023-01-29T06:54:09.511Z,15.02
2023-01-29T06:59:03.816Z,14.98
2023-01-29T07:01:36.219Z,14.98
2023-01-29T07:04:03.834Z,14.94
2023-01-29T07:09:18.133Z,14.96
2023-01-29T07:11:45.349Z,14.95
2023-01-29T07:14:12.580Z,14.94
2023-01-29T07:16:39.828Z,14.93
2023-01-29T07:19:07.014Z,14.91
2023-01-29T07:21:34.188Z,14.90
2023-01-29T07:24:01.409Z,14.89
2023-01-29T07:26:28.620Z,14.91
2023-01-29T07:28:55.994Z,14.88
2023-01-29T07:31:23.344Z,14.89
2023-01-29T07:33:50.597Z,14.92
2023-01-29T07:36:17.812Z,14.99
2023-01-29T07:38:45.020Z,15.10
2023-01-29T07:41:12.653Z,15.13
2023-01-29T07:43:39.845Z,15.15
2023-01-29T07:46:07.115Z,15.14
2023-01-29T07:48:34.416Z,15.17
2023-01-29T07:51:01.625Z,15.17
2023-01-29T07:53:28.818Z,15.22
2023-01-29T07:55:55.992Z,15.24
2023-01-29T07:58:23.197Z,15.27
2023-01-29T08:06:24.784Z,15.28
2023-01-29T08:08:53.091Z,15.30
2023-01-29T08:11:20.274Z,15.33
2023-01-29T08:16:34.637Z,15.36
2023-01-29T08:19:01.820Z,15.38
2023-01-29T08:21:29.146Z,15.39
2023-01-29T08:23:57.009Z,15.40
2023-01-29T08:26:26.272Z,15.40
2023-01-29T08:28:53.461Z,15.44
2023-01-29T08:31:20.831Z,15.44
2023-01-29T08:33:48.049Z,15.44
2023-01-29T08:36:15.296Z,15.45
2023-01-29T08:38:42.514Z,15.44
2023-01-29T08:41:09.699Z,15.47
2023-01-29T08:43:37.117Z,15.49
2023-01-29T08:46:04.614Z,15.51
2023-01-29T08:48:31.863Z,15.49
2023-01-29T08:53:46.622Z,15.50
2023-01-29T08:56:13.902Z,15.49
2023-01-29T09:01:28.198Z,15.53
2023-01-29T09:03:55.383Z,15.53
2023-01-29T09:06:22.558Z,15.54
2023-01-29T09:08:49.889Z,15.57
2023-01-29T09:11:17.149Z,15.59
2023-01-29T09:13:44.382Z,15.58
2023-01-29T09:16:11.644Z,15.62
2023-01-29T09:18:38.819Z,15.60
2023-01-29T09:21:06.051Z,15.59
2023-01-29T09:23:33.285Z,15.62
2023-01-29T09:28:47.569Z,15.66
2023-01-29T09:31:14.936Z,15.65
2023-01-29T09:33:42.278Z,15.63
2023-01-29T09:36:09.549Z,15.70
2023-01-29T09:38:36.824Z,15.67
2023-01-29T09:43:51.330Z,15.67
2023-01-29T09:46:18.580Z,15.68
2023-01-29T09:48:45.815Z,15.64
2023-01-29T09:51:12.988Z,15.68
2023-01-29T09:53:40.167Z,15.71
2023-01-29T09:56:07.411Z,15.71
2023-01-29T09:58:34.593Z,15.74
2023-01-29T10:03:28.877Z,15.70
2023-01-29T10:05:56.047Z,15.73
2023-01-29T10:08:23.706Z,15.72
2023-01-29T10:10:50.901Z,15.70
2023-01-29T10:13:18.084Z,15.72
2023-01-29T10:15:45.294Z,15.75
2023-01-29T10:18:12.513Z,15.76
2023-01-29T10:20:39.732Z,15.78
2023-01-29T10:23:06.989Z,15.78
2023-01-29T10:25:34.218Z,15.79
2023-01-29T10:30:48.628Z,15.79
2023-01-29T10:33:15.862Z,15.75
2023-01-29T10:35:43.032Z,15.78
2023-01-29T10:38:10.208Z,15.82
2023-01-29T10:40:37.382Z,15.83
2023-01-29T10:43:04.705Z,15.83
2023-01-29T10:45:31.902Z,15.83
2023-01-29T10:50:49.229Z,15.83
2023-01-29T10:53:16.435Z,15.82
2023-01-29T10:55:43.681Z,15.81
2023-01-29T10:58:10.887Z,15.79
2023-01-29T11:00:38.069Z,15.79
2023-01-29T11:03:08.180Z,15.82
2023-01-29T11:05:37.419Z,15.85
2023-01-29T11:08:04.605Z,15.86
2023-01-29T11:10:31.795Z,15.81
2023-01-29T11:12:58.966Z,15.82
2023-01-29T11:15:26.155Z,15.83
2023-01-29T11:17:53.321Z,15.84
2023-01-29T11:20:20.499Z,15.82
2023-01-29T11:22:47.850Z,15.83
2023-01-29T11:25:15.013Z,15.83
2023-01-29T11:27:42.280Z,15.89
2023-01-29T11:30:09.447Z,15.90
2023-01-29T11:32:36.700Z,15.89
2023-01-29T11:37:51.106Z,15.88
2023-01-29T11:40:18.541Z,15.93
2023-01-29T11:42:45.900Z,15.88
2023-01-29T11:45:13.066Z,15.91
2023-01-29T11:47:40.255Z,15.91
2023-01-29T11:50:07.438Z,15.92
2023-01-29T11:52:34.607Z,15.91
2023-01-29T11:55:02.329Z,15.92
2023-01-29T11:57:29.643Z,15.95
2023-01-29T11:59:56.832Z,15.95
2023-01-29T12:02:24.043Z,15.94
2023-01-29T12:04:51.231Z,15.93
2023-01-29T12:07:18.422Z,15.96
2023-01-29T12:09:45.621Z,15.95
2023-01-29T12:12:12.791Z,15.95
2023-01-29T12:14:39.993Z,15.97
2023-01-29T12:19:54.369Z,15.96
2023-01-29T12:22:21.607Z,15.98
2023-01-29T12:24:48.817Z,15.97
2023-01-29T12:27:16.159Z,15.97
2023-01-29T12:29:43.372Z,15.98
2023-01-29T12:32:10.596Z,15.98
2023-01-29T12:34:39.333Z,15.99
2023-01-29T12:39:53.612Z,16.02
2023-01-29T12:42:20.855Z,16.02
2023-01-29T12:44:48.058Z,16.00
2023-01-29T12:47:17.085Z,16.01
2023-01-29T12:49:44.475Z,16.03
2023-01-29T12:52:11.701Z,16.02
2023-01-29T12:54:38.911Z,16.02
2023-01-29T12:59:53.201Z,16.07
2023-01-29T13:02:20.488Z,16.05
2023-01-29T13:04:47.663Z,16.07
2023-01-29T13:07:14.900Z,16.05
2023-01-29T13:09:42.101Z,16.05
2023-01-29T13:12:09.324Z,16.04
2023-01-29T13:14:36.500Z,16.06
2023-01-29T13:17:03.671Z,16.08
2023-01-29T13:19:30.896Z,16.07
2023-01-29T13:21:58.144Z,16.09
2023-01-29T13:24:25.336Z,16.07
2023-01-29T13:26:52.552Z,16.09
2023-01-29T13:29:19.736Z,16.07
2023-01-29T13:34:34.108Z,16.07
2023-01-29T13:37:01.285Z,16.08
2023-01-29T13:39:28.589Z,16.10
2023-01-29T13:41:55.808Z,16.07
2023-01-29T13:44:23.046Z,16.07
2023-01-29T13:46:50.253Z,16.11
2023-01-29T13:49:17.446Z,16.09
2023-01-29T13:51:44.633Z,16.07
2023-01-29T13:54:11.813Z,16.12
2023-01-29T13:56:39.005Z,16.11
2023-01-29T14:01:53.287Z,16.12
2023-01-29T14:04:25.527Z,16.12
2023-01-29T14:06:52.787Z,16.11
2023-01-29T14:09:19.989Z,16.09
2023-01-29T14:11:47.167Z,16.10
2023-01-29T14:14:14.365Z,16.14
2023-01-29T14:16:41.602Z,16.14
2023-01-29T14:24:43.021Z,16.12
2023-01-29T14:40:47.098Z,16.13
2023-01-29T14:46:06.899Z,16.14
2023-01-29T14:48:34.076Z,16.14
2023-01-29T14:51:01.262Z,16.15
2023-01-29T14:53:28.434Z,16.17
2023-01-29T14:55:55.635Z,16.14
2023-01-29T14:58:22.884Z,16.16
2023-01-29T15:00:50.067Z,16.17
2023-01-29T15:03:17.272Z,16.18
2023-01-29T15:05:44.473Z,16.18
2023-01-29T15:08:11.676Z,16.14
2023-01-29T15:10:39.001Z,16.11
2023-01-29T15:13:06.218Z,16.00
2023-01-29T15:15:33.597Z,15.95
2023-01-29T15:18:00.872Z,15.92
2023-01-29T15:20:28.182Z,15.90
2023-01-29T15:22:55.385Z,15.89
2023-01-29T15:25:22.648Z,15.89
2023-01-29T15:27:50.096Z,15.88
2023-01-29T15:30:17.281Z,15.85
2023-01-29T15:32:44.475Z,15.86
2023-01-29T15:35:11.712Z,15.83
2023-01-29T15:37:39.005Z,15.83
2023-01-29T15:40:07.215Z,15.83
2023-01-29T15:42:34.396Z,15.83
2023-01-29T15:45:01.609Z,15.80
2023-01-29T15:47:28.901Z,15.81
2023-01-29T15:49:57.373Z,15.81
2023-01-29T15:52:24.597Z,15.82
2023-01-29T15:54:51.920Z,15.78
2023-01-29T15:57:19.123Z,15.78
2023-01-29T15:59:46.342Z,15.77
2023-01-29T16:02:13.522Z,15.75
2023-01-29T16:04:40.771Z,15.78
2023-01-29T16:07:07.973Z,15.77
2023-01-29T16:09:35.181Z,15.76
2023-01-29T16:12:02.360Z,15.73
2023-01-29T16:14:29.678Z,15.74
2023-01-29T16:16:56.903Z,15.75
2023-01-29T16:22:11.201Z,15.76
2023-01-29T16:24:39.173Z,15.73
2023-01-29T16:27:06.534Z,15.72
2023-01-29T16:29:33.783Z,15.71
2023-01-29T16:32:02.170Z,15.74
2023-01-29T16:34:29.396Z,15.73
2023-01-29T16:36:56.602Z,15.73
2023-01-29T16:39:23.810Z,15.71
2023-01-29T16:41:50.997Z,15.72
2023-01-29T16:44:18.191Z,15.71
2023-01-29T16:46:45.517Z,15.71
2023-01-29T16:49:12.716Z,15.70
2023-01-29T16:51:39.991Z,15.73
2023-01-29T16:54:07.240Z,15.71
2023-01-29T16:56:34.486Z,15.71
2023-01-29T16:59:01.672Z,15.70
2023-01-29T17:01:28.851Z,15.73
2023-01-29T17:03:56.096Z,15.74
2023-01-29T17:06:23.500Z,15.70
2023-01-29T17:08:50.695Z,15.70
2023-01-29T17:11:17.889Z,15.68
2023-01-29T17:16:32.422Z,15.70
2023-01-29T17:18:59.729Z,15.71
2023-01-29T17:21:26.980Z,15.70
2023-01-29T17:23:54.220Z,15.72
2023-01-29T17:26:21.475Z,15.70
2023-01-29T17:28:48.714Z,15.69
2023-01-29T17:31:15.964Z,15.68
2023-01-29T17:33:43.346Z,15.69
2023-01-29T17:36:10.527Z,15.70
2023-01-29T17:38:37.696Z,15.68
2023-01-29T17:41:04.863Z,15.69
2023-01-29T17:43:32.107Z,15.67
2023-01-29T17:45:59.360Z,15.67
2023-01-29T17:48:26.571Z,15.66
2023-01-29T17:50:53.819Z,15.65
2023-01-29T17:53:21.072Z,15.67
2023-01-29T17:55:48.427Z,15.66
2023-01-29T17:58:15.613Z,15.65
2023-01-29T18:00:42.830Z,15.66
2023-01-29T18:03:10.065Z,15.66
2023-01-29T18:05:37.295Z,15.68
2023-01-29T18:08:04.783Z,15.66
2023-01-29T18:10:31.987Z,15.67
2023-01-29T18:12:59.186Z,15.67
2023-01-29T18:15:26.355Z,15.63
2023-01-29T18:17:54.647Z,15.65
2023-01-29T18:20:21.879Z,15.67
2023-01-29T18:22:49.080Z,15.65
2023-01-29T18:25:16.680Z,15.64
2023-01-29T18:27:44.133Z,15.66
2023-01-29T18:30:11.415Z,15.65
2023-01-29T18:32:38.708Z,15.63
2023-01-29T18:35:06.613Z,15.61
2023-01-29T18:37:34.020Z,15.64
2023-01-29T18:40:01.278Z,15.65
2023-01-29T18:42:28.575Z,15.61
2023-01-29T18:44:55.818Z,15.61
2023-01-29T18:47:23.738Z,15.61
2023-01-29T18:49:51.938Z,15.59
2023-01-29T18:54:46.356Z,15.60
2023-01-29T18:57:14.951Z,15.58
2023-01-29T18:59:43.142Z,15.58
2023-01-29T19:02:12.115Z,15.53
2023-01-29T19:04:39.380Z,15.50
2023-01-29T19:07:06.548Z,15.48
2023-01-29T19:09:33.750Z,15.53
2023-01-29T19:12:00.939Z,15.52
2023-01-29T19:14:28.192Z,15.50
2023-01-29T19:16:55.394Z,15.49
2023-01-29T19:19:22.723Z,15.49
2023-01-29T19:21:49.989Z,15.45
2023-01-29T19:24:17.322Z,15.49
2023-01-29T19:26:47.592Z,15.48
2023-01-29T19:29:14.841Z,15.46
2023-01-29T19:34:29.403Z,15.44
2023-01-29T19:36:56.637Z,15.43
2023-01-29T19:39:23.914Z,15.43
2023-01-29T19:41:51.353Z,15.39
2023-01-29T19:44:18.656Z,15.38
2023-01-29T19:46:46.843Z,15.39
2023-01-29T19:49:14.131Z,15.36
2023-01-29T19:51:41.661Z,15.36
2023-01-29T19:54:09.002Z,15.36
2023-01-29T19:56:36.185Z,15.34
2023-01-29T19:59:05.030Z,15.37
2023-01-29T20:01:32.416Z,15.36
2023-01-29T20:03:59.755Z,15.37
2023-01-29T20:06:26.984Z,15.35
2023-01-29T20:08:54.481Z,15.35
2023-01-29T20:11:21.896Z,15.34
2023-01-29T20:13:49.706Z,15.30
2023-01-29T20:16:17.334Z,15.31
2023-01-29T20:21:31.819Z,15.27
2023-01-29T20:23:59.233Z,15.30
2023-01-29T20:26:26.554Z,15.29
2023-01-29T20:28:54.009Z,15.28
2023-01-29T20:31:21.421Z,15.25
2023-01-29T20:33:48.626Z,15.27
2023-01-29T20:36:16.039Z,15.24
2023-01-29T20:41:30.459Z,15.22
2023-01-29T20:43:57.734Z,15.21
2023-01-29T20:46:25.198Z,15.18
2023-01-29T20:48:56.656Z,15.19
2023-01-29T20:56:59.970Z,15.15
2023-01-29T20:59:29.012Z,15.14
2023-01-29T21:01:56.421Z,15.14
2023-01-29T21:04:23.722Z,15.13
2023-01-29T21:06:50.917Z,15.10
2023-01-29T21:09:18.101Z,15.10
2023-01-29T21:11:45.288Z,15.11
2023-01-29T21:14:12.621Z,15.07
2023-01-29T21:19:27.830Z,15.07
2023-01-29T21:21:57.863Z,15.04
2023-01-29T21:24:25.230Z,15.03
2023-01-29T21:26:52.449Z,15.05
2023-01-29T21:29:19.887Z,15.02
2023-01-29T21:31:47.124Z,15.03
2023-01-29T21:34:14.420Z,15.04
2023-01-29T21:39:28.713Z,15.00
2023-01-29T21:42:14.750Z,15.00
2023-01-29T21:47:14.968Z,14.95
2023-01-29T21:49:42.173Z,14.97
2023-01-29T21:52:09.353Z,14.93
2023-01-29T21:54:45.745Z,14.93
2023-01-29T21:57:13.047Z,14.92
2023-01-29T21:59:40.479Z,14.92
2023-01-29T22:02:07.748Z,14.91
2023-01-29T22:04:35.031Z,14.89
2023-01-29T22:07:02.249Z,14.88
2023-01-29T22:09:29.583Z,14.86
2023-01-29T22:11:56.992Z,14.87
2023-01-29T22:14:24.182Z,14.83
2023-01-29T22:16:51.472Z,14.86
2023-01-29T22:19:18.681Z,14.82
2023-01-29T22:24:33.204Z,14.81
2023-01-29T22:27:00.445Z,14.79
2023-01-29T22:29:27.639Z,14.78
2023-01-29T22:31:56.566Z,14.75
2023-01-29T22:34:23.773Z,14.76
2023-01-29T22:36:51.023Z,14.77
2023-01-29T22:39:18.216Z,14.74
2023-01-29T22:44:32.561Z,14.75
2023-01-29T22:46:59.734Z,14.74
2023-01-29T22:49:29.517Z,14.73
2023-01-29T22:52:12.189Z,14.74
2023-01-29T22:54:39.400Z,14.69
2023-01-29T22:57:06.664Z,14.70
2023-01-29T22:59:33.874Z,14.68
2023-01-29T23:02:01.204Z,14.67
2023-01-29T23:04:28.571Z,14.68
2023-01-29T23:06:55.812Z,14.66
2023-01-29T23:09:22.973Z,14.65
2023-01-29T23:11:50.301Z,14.65
2023-01-29T23:14:17.484Z,14.64
2023-01-29T23:16:44.725Z,14.64
2023-01-29T23:19:12.315Z,14.62
2023-01-29T23:21:39.811Z,14.63
2023-01-29T23:24:07.420Z,14.62
2023-01-29T23:26:53.432Z,14.61
2023-01-29T23:29:20.676Z,14.61
2023-01-29T23:34:34.976Z,14.54
2023-01-29T23:37:02.145Z,14.52
2023-01-29T23:39:29.322Z,14.57
2023-01-29T23:41:56.508Z,14.55
2023-01-29T23:44:23.693Z,14.48
2023-01-29T23:46:50.934Z,14.54
2023-01-29T23:49:18.766Z,14.53
2023-01-29T23:54:33.186Z,14.50
2023-01-29T23:57:00.376Z,14.49
